sensor_id;sensor_type;location;lat;lon;timestamp;P1;durP1;ratioP1;P2;durP2;ratioP2
76640;SDS011;65538;50.798;6.064;2023-05-07T00:01:28;6.20;;;4.90;;
76640;SDS011;65538;50.798;6.064;2023-05-07T00:03:53;6.70;;;5.13;;
76640;SDS011;65538;50.798;6.064;2023-05-07T00:06:18;8.43;;;4.77;;
76640;SDS011;65538;50.798;6.064;2023-05-07T00:08:44;6.90;;;4.95;;
76640;SDS011;65538;50.798;6.064;2023-05-07T00:11:09;7.13;;;5.15;;
76640;SDS011;65538;50.798;6.064;2023-05-07T00:13:35;8.53;;;5.63;;
76640;SDS011;65538;50.798;6.064;2023-05-07T00:16:01;8.13;;;5.57;;
76640;SDS011;65538;50.798;6.064;2023-05-07T00:18:26;7.93;;;5.20;;
76640;SDS011;65538;50.798;6.064;2023-05-07T00:20:51;6.40;;;4.43;;
76640;SDS011;65538;50.798;6.064;2023-05-07T00:23:17;8.25;;;5.00;;
76640;SDS011;65538;50.798;6.064;2023-05-07T00:25:42;7.20;;;4.97;;
76640;SDS011;65538;50.798;6.064;2023-05-07T00:28:07;6.30;;;4.93;;
76640;SDS011;65538;50.798;6.064;2023-05-07T00:30:33;5.80;;;4.67;;
76640;SDS011;65538;50.798;6.064;2023-05-07T00:32:58;7.13;;;5.10;;
76640;SDS011;65538;50.798;6.064;2023-05-07T00:35:23;6.00;;;4.47;;
76640;SDS011;65538;50.798;6.064;2023-05-07T00:37:48;7.23;;;5.10;;
76640;SDS011;65538;50.798;6.064;2023-05-07T00:40:14;6.17;;;4.60;;
76640;SDS011;65538;50.798;6.064;2023-05-07T00:42:39;8.02;;;3.88;;
76640;SDS011;65538;50.798;6.064;2023-05-07T00:45:04;6.23;;;4.50;;
76640;SDS011;65538;50.798;6.064;2023-05-07T00:47:30;8.15;;;4.88;;
76640;SDS011;65538;50.798;6.064;2023-05-07T00:49:56;5.63;;;4.30;;
76640;SDS011;65538;50.798;6.064;2023-05-07T00:52:21;6.10;;;4.90;;
76640;SDS011;65538;50.798;6.064;2023-05-07T00:54:50;6.68;;;4.50;;
76640;SDS011;65538;50.798;6.064;2023-05-07T00:57:18;7.27;;;4.23;;
76640;SDS011;65538;50.798;6.064;2023-05-07T00:59:44;5.60;;;4.18;;
76640;SDS011;65538;50.798;6.064;2023-05-07T01:02:09;8.33;;;4.70;;
76640;SDS011;65538;50.798;6.064;2023-05-07T01:04:35;10.43;;;4.80;;
76640;SDS011;65538;50.798;6.064;2023-05-07T01:07:00;6.70;;;4.45;;
76640;SDS011;65538;50.798;6.064;2023-05-07T01:09:26;10.13;;;4.88;;
76640;SDS011;65538;50.798;6.064;2023-05-07T01:11:52;8.38;;;4.22;;
76640;SDS011;65538;50.798;6.064;2023-05-07T01:14:18;8.63;;;5.57;;
76640;SDS011;65538;50.798;6.064;2023-05-07T01:16:44;8.90;;;5.50;;
76640;SDS011;65538;50.798;6.064;2023-05-07T01:19:09;6.93;;;4.13;;
76640;SDS011;65538;50.798;6.064;2023-05-07T01:21:36;6.43;;;4.80;;
76640;SDS011;65538;50.798;6.064;2023-05-07T01:24:02;7.68;;;5.28;;
76640;SDS011;65538;50.798;6.064;2023-05-07T01:26:27;8.93;;;5.03;;
76640;SDS011;65538;50.798;6.064;2023-05-07T01:28:53;13.60;;;5.45;;
76640;SDS011;65538;50.798;6.064;2023-05-07T01:31:18;6.53;;;4.87;;
76640;SDS011;65538;50.798;6.064;2023-05-07T01:33:43;6.50;;;4.43;;
76640;SDS011;65538;50.798;6.064;2023-05-07T01:36:10;6.85;;;4.72;;
76640;SDS011;65538;50.798;6.064;2023-05-07T01:38:36;7.20;;;4.80;;
76640;SDS011;65538;50.798;6.064;2023-05-07T01:41:02;6.57;;;4.90;;
76640;SDS011;65538;50.798;6.064;2023-05-07T01:43:28;8.45;;;5.20;;
76640;SDS011;65538;50.798;6.064;2023-05-07T01:45:53;6.18;;;4.57;;
76640;SDS011;65538;50.798;6.064;2023-05-07T01:48:19;7.53;;;5.38;;
76640;SDS011;65538;50.798;6.064;2023-05-07T01:50:45;6.50;;;5.03;;
76640;SDS011;65538;50.798;6.064;2023-05-07T01:53:10;6.50;;;4.50;;
76640;SDS011;65538;50.798;6.064;2023-05-07T01:55:35;6.37;;;4.77;;
76640;SDS011;65538;50.798;6.064;2023-05-07T01:58:02;6.75;;;4.47;;
76640;SDS011;65538;50.798;6.064;2023-05-07T02:00:27;5.82;;;4.80;;
76640;SDS011;65538;50.798;6.064;2023-05-07T02:02:52;9.23;;;5.32;;
76640;SDS011;65538;50.798;6.064;2023-05-07T02:05:18;7.57;;;5.38;;
76640;SDS011;65538;50.798;6.064;2023-05-07T02:07:43;11.23;;;3.77;;
76640;SDS011;65538;50.798;6.064;2023-05-07T02:10:08;5.40;;;4.43;;
76640;SDS011;65538;50.798;6.064;2023-05-07T02:12:34;7.70;;;4.80;;
76640;SDS011;65538;50.798;6.064;2023-05-07T02:14:59;9.70;;;4.95;;
76640;SDS011;65538;50.798;6.064;2023-05-07T02:17:24;5.77;;;4.40;;
76640;SDS011;65538;50.798;6.064;2023-05-07T02:19:50;7.75;;;5.13;;
76640;SDS011;65538;50.798;6.064;2023-05-07T02:22:16;6.87;;;4.87;;
76640;SDS011;65538;50.798;6.064;2023-05-07T02:24:41;6.90;;;4.70;;
76640;SDS011;65538;50.798;6.064;2023-05-07T02:27:06;7.87;;;4.97;;
76640;SDS011;65538;50.798;6.064;2023-05-07T02:29:31;7.03;;;5.20;;
76640;SDS011;65538;50.798;6.064;2023-05-07T02:31:57;7.00;;;4.90;;
76640;SDS011;65538;50.798;6.064;2023-05-07T02:34:22;8.43;;;5.17;;
76640;SDS011;65538;50.798;6.064;2023-05-07T02:36:47;5.57;;;4.50;;
76640;SDS011;65538;50.798;6.064;2023-05-07T02:39:12;6.47;;;4.87;;
76640;SDS011;65538;50.798;6.064;2023-05-07T02:41:38;5.65;;;4.25;;
76640;SDS011;65538;50.798;6.064;2023-05-07T02:44:03;6.93;;;4.45;;
76640;SDS011;65538;50.798;6.064;2023-05-07T02:46:29;7.25;;;5.22;;
76640;SDS011;65538;50.798;6.064;2023-05-07T02:48:54;6.28;;;4.63;;
76640;SDS011;65538;50.798;6.064;2023-05-07T02:51:20;6.57;;;4.70;;
76640;SDS011;65538;50.798;6.064;2023-05-07T02:53:45;7.60;;;4.93;;
76640;SDS011;65538;50.798;6.064;2023-05-07T02:56:11;6.57;;;4.73;;
76640;SDS011;65538;50.798;6.064;2023-05-07T02:58:36;6.30;;;4.27;;
76640;SDS011;65538;50.798;6.064;2023-05-07T03:01:01;7.57;;;4.27;;
76640;SDS011;65538;50.798;6.064;2023-05-07T03:03:26;8.67;;;5.90;;
76640;SDS011;65538;50.798;6.064;2023-05-07T03:05:51;7.27;;;3.87;;
76640;SDS011;65538;50.798;6.064;2023-05-07T03:08:17;6.80;;;4.73;;
76640;SDS011;65538;50.798;6.064;2023-05-07T03:10:42;7.37;;;4.50;;
76640;SDS011;65538;50.798;6.064;2023-05-07T03:13:07;5.97;;;4.73;;
76640;SDS011;65538;50.798;6.064;2023-05-07T03:15:32;6.17;;;4.67;;
76640;SDS011;65538;50.798;6.064;2023-05-07T03:17:58;7.83;;;4.60;;
76640;SDS011;65538;50.798;6.064;2023-05-07T03:20:23;7.20;;;4.53;;
76640;SDS011;65538;50.798;6.064;2023-05-07T03:22:48;11.70;;;4.97;;
76640;SDS011;65538;50.798;6.064;2023-05-07T03:25:13;7.57;;;4.87;;
76640;SDS011;65538;50.798;6.064;2023-05-07T03:27:39;6.15;;;4.75;;
76640;SDS011;65538;50.798;6.064;2023-05-07T03:30:06;6.20;;;4.88;;
76640;SDS011;65538;50.798;6.064;2023-05-07T03:32:32;7.22;;;4.95;;
76640;SDS011;65538;50.798;6.064;2023-05-07T03:34:57;8.30;;;4.80;;
76640;SDS011;65538;50.798;6.064;2023-05-07T03:37:23;6.73;;;5.10;;
76640;SDS011;65538;50.798;6.064;2023-05-07T03:39:48;6.23;;;4.67;;
76640;SDS011;65538;50.798;6.064;2023-05-07T03:42:13;7.37;;;4.90;;
76640;SDS011;65538;50.798;6.064;2023-05-07T03:44:38;6.97;;;5.17;;
76640;SDS011;65538;50.798;6.064;2023-05-07T03:47:04;7.30;;;4.47;;
76640;SDS011;65538;50.798;6.064;2023-05-07T03:49:29;7.13;;;5.40;;
76640;SDS011;65538;50.798;6.064;2023-05-07T03:51:54;7.38;;;4.93;;
76640;SDS011;65538;50.798;6.064;2023-05-07T03:54:20;6.68;;;5.13;;
76640;SDS011;65538;50.798;6.064;2023-05-07T03:56:45;6.07;;;5.20;;
76640;SDS011;65538;50.798;6.064;2023-05-07T03:59:12;6.85;;;4.70;;
76640;SDS011;65538;50.798;6.064;2023-05-07T04:01:40;5.97;;;4.88;;
76640;SDS011;65538;50.798;6.064;2023-05-07T04:04:06;8.00;;;4.90;;
76640;SDS011;65538;50.798;6.064;2023-05-07T04:06:31;7.43;;;5.23;;
76640;SDS011;65538;50.798;6.064;2023-05-07T04:08:56;8.97;;;5.40;;
76640;SDS011;65538;50.798;6.064;2023-05-07T04:11:21;9.23;;;5.47;;
76640;SDS011;65538;50.798;6.064;2023-05-07T04:13:47;7.60;;;4.97;;
76640;SDS011;65538;50.798;6.064;2023-05-07T04:16:12;6.40;;;5.27;;
76640;SDS011;65538;50.798;6.064;2023-05-07T04:18:37;7.10;;;5.23;;
76640;SDS011;65538;50.798;6.064;2023-05-07T04:21:03;6.88;;;4.82;;
76640;SDS011;65538;50.798;6.064;2023-05-07T04:23:28;7.93;;;5.10;;
76640;SDS011;65538;50.798;6.064;2023-05-07T04:25:53;7.83;;;4.70;;
76640;SDS011;65538;50.798;6.064;2023-05-07T04:28:19;5.95;;;4.30;;
76640;SDS011;65538;50.798;6.064;2023-05-07T04:30:44;6.60;;;4.73;;
76640;SDS011;65538;50.798;6.064;2023-05-07T04:33:09;6.33;;;4.50;;
76640;SDS011;65538;50.798;6.064;2023-05-07T04:35:35;7.20;;;4.53;;
76640;SDS011;65538;50.798;6.064;2023-05-07T04:38:01;7.53;;;4.78;;
76640;SDS011;65538;50.798;6.064;2023-05-07T04:40:26;7.38;;;5.10;;
76640;SDS011;65538;50.798;6.064;2023-05-07T04:42:51;7.50;;;4.70;;
76640;SDS011;65538;50.798;6.064;2023-05-07T04:45:18;7.07;;;4.93;;
76640;SDS011;65538;50.798;6.064;2023-05-07T04:47:46;6.60;;;5.07;;
76640;SDS011;65538;50.798;6.064;2023-05-07T04:50:11;7.38;;;4.68;;
76640;SDS011;65538;50.798;6.064;2023-05-07T04:52:36;8.97;;;4.93;;
76640;SDS011;65538;50.798;6.064;2023-05-07T04:55:02;10.48;;;4.72;;
76640;SDS011;65538;50.798;6.064;2023-05-07T04:57:27;5.63;;;4.65;;
76640;SDS011;65538;50.798;6.064;2023-05-07T04:59:53;7.90;;;5.20;;
76640;SDS011;65538;50.798;6.064;2023-05-07T05:02:18;7.22;;;5.18;;
76640;SDS011;65538;50.798;6.064;2023-05-07T05:04:43;5.97;;;4.70;;
76640;SDS011;65538;50.798;6.064;2023-05-07T05:07:08;7.23;;;4.43;;
76640;SDS011;65538;50.798;6.064;2023-05-07T05:09:33;8.90;;;4.67;;
76640;SDS011;65538;50.798;6.064;2023-05-07T05:11:59;5.18;;;3.85;;
76640;SDS011;65538;50.798;6.064;2023-05-07T05:14:24;8.37;;;3.93;;
76640;SDS011;65538;50.798;6.064;2023-05-07T05:16:49;5.53;;;4.73;;
76640;SDS011;65538;50.798;6.064;2023-05-07T05:19:15;6.37;;;4.63;;
76640;SDS011;65538;50.798;6.064;2023-05-07T05:21:40;6.83;;;4.40;;
76640;SDS011;65538;50.798;6.064;2023-05-07T05:24:05;7.57;;;3.97;;
76640;SDS011;65538;50.798;6.064;2023-05-07T05:26:31;6.72;;;4.75;;
76640;SDS011;65538;50.798;6.064;2023-05-07T05:28:56;5.83;;;4.60;;
76640;SDS011;65538;50.798;6.064;2023-05-07T05:34:21;5.63;;;4.18;;
76640;SDS011;65538;50.798;6.064;2023-05-07T05:36:53;7.47;;;5.00;;
76640;SDS011;65538;50.798;6.064;2023-05-07T05:41:46;4.67;;;3.97;;
76640;SDS011;65538;50.798;6.064;2023-05-07T05:44:18;6.43;;;3.80;;
76640;SDS011;65538;50.798;6.064;2023-05-07T05:46:44;9.67;;;4.50;;
76640;SDS011;65538;50.798;6.064;2023-05-07T05:49:09;5.67;;;4.37;;
76640;SDS011;65538;50.798;6.064;2023-05-07T05:51:34;7.20;;;4.40;;
76640;SDS011;65538;50.798;6.064;2023-05-07T05:53:59;7.33;;;4.53;;
76640;SDS011;65538;50.798;6.064;2023-05-07T05:56:25;4.73;;;3.93;;
76640;SDS011;65538;50.798;6.064;2023-05-07T05:58:50;5.88;;;3.95;;
76640;SDS011;65538;50.798;6.064;2023-05-07T06:01:16;6.17;;;4.50;;
76640;SDS011;65538;50.798;6.064;2023-05-07T06:03:42;8.18;;;4.47;;
76640;SDS011;65538;50.798;6.064;2023-05-07T06:06:07;5.33;;;4.43;;
76640;SDS011;65538;50.798;6.064;2023-05-07T06:08:32;5.27;;;4.20;;
76640;SDS011;65538;50.798;6.064;2023-05-07T06:10:57;6.77;;;4.17;;
76640;SDS011;65538;50.798;6.064;2023-05-07T06:13:23;5.35;;;3.90;;
76640;SDS011;65538;50.798;6.064;2023-05-07T06:15:48;6.43;;;3.53;;
76640;SDS011;65538;50.798;6.064;2023-05-07T06:18:14;5.85;;;4.35;;
76640;SDS011;65538;50.798;6.064;2023-05-07T06:20:39;6.53;;;4.43;;
76640;SDS011;65538;50.798;6.064;2023-05-07T06:23:04;6.10;;;3.83;;
76640;SDS011;65538;50.798;6.064;2023-05-07T06:25:30;17.90;;;5.77;;
76640;SDS011;65538;50.798;6.064;2023-05-07T06:27:55;15.97;;;5.07;;
76640;SDS011;65538;50.798;6.064;2023-05-07T06:30:20;14.73;;;5.17;;
76640;SDS011;65538;50.798;6.064;2023-05-07T06:32:45;8.97;;;4.00;;
76640;SDS011;65538;50.798;6.064;2023-05-07T06:35:11;5.05;;;3.65;;
76640;SDS011;65538;50.798;6.064;2023-05-07T06:37:36;6.10;;;3.93;;
76640;SDS011;65538;50.798;6.064;2023-05-07T06:40:03;6.50;;;4.47;;
76640;SDS011;65538;50.798;6.064;2023-05-07T06:42:29;7.68;;;4.90;;
76640;SDS011;65538;50.798;6.064;2023-05-07T06:44:54;7.13;;;4.03;;
76640;SDS011;65538;50.798;6.064;2023-05-07T06:47:19;9.23;;;6.07;;
76640;SDS011;65538;50.798;6.064;2023-05-07T06:49:45;6.87;;;4.20;;
76640;SDS011;65538;50.798;6.064;2023-05-07T06:52:11;4.00;;;3.00;;
76640;SDS011;65538;50.798;6.064;2023-05-07T06:54:36;6.63;;;3.75;;
76640;SDS011;65538;50.798;6.064;2023-05-07T06:57:02;4.93;;;3.10;;
76640;SDS011;65538;50.798;6.064;2023-05-07T06:59:27;3.90;;;2.83;;
76640;SDS011;65538;50.798;6.064;2023-05-07T07:01:52;4.60;;;2.63;;
76640;SDS011;65538;50.798;6.064;2023-05-07T07:04:17;4.23;;;2.93;;
76640;SDS011;65538;50.798;6.064;2023-05-07T07:06:42;5.33;;;2.83;;
76640;SDS011;65538;50.798;6.064;2023-05-07T07:09:08;5.43;;;3.10;;
76640;SDS011;65538;50.798;6.064;2023-05-07T07:11:33;7.70;;;4.33;;
76640;SDS011;65538;50.798;6.064;2023-05-07T07:13:58;6.73;;;3.87;;
76640;SDS011;65538;50.798;6.064;2023-05-07T07:16:24;6.28;;;3.13;;
76640;SDS011;65538;50.798;6.064;2023-05-07T07:18:49;7.70;;;3.83;;
76640;SDS011;65538;50.798;6.064;2023-05-07T07:21:14;8.97;;;4.23;;
76640;SDS011;65538;50.798;6.064;2023-05-07T07:23:39;12.03;;;6.87;;
76640;SDS011;65538;50.798;6.064;2023-05-07T07:26:05;6.20;;;4.50;;
76640;SDS011;65538;50.798;6.064;2023-05-07T07:28:31;5.22;;;3.60;;
76640;SDS011;65538;50.798;6.064;2023-05-07T07:30:56;5.33;;;3.47;;
76640;SDS011;65538;50.798;6.064;2023-05-07T07:33:22;6.93;;;4.37;;
76640;SDS011;65538;50.798;6.064;2023-05-07T07:35:47;5.87;;;4.10;;
76640;SDS011;65538;50.798;6.064;2023-05-07T07:38:12;5.70;;;3.63;;
76640;SDS011;65538;50.798;6.064;2023-05-07T07:40:37;5.57;;;3.43;;
76640;SDS011;65538;50.798;6.064;2023-05-07T07:43:02;6.00;;;3.97;;
76640;SDS011;65538;50.798;6.064;2023-05-07T07:45:28;4.03;;;2.60;;
76640;SDS011;65538;50.798;6.064;2023-05-07T07:47:53;4.97;;;3.10;;
76640;SDS011;65538;50.798;6.064;2023-05-07T07:50:18;6.07;;;3.00;;
76640;SDS011;65538;50.798;6.064;2023-05-07T07:52:43;6.57;;;3.80;;
76640;SDS011;65538;50.798;6.064;2023-05-07T07:55:09;4.90;;;3.28;;
76640;SDS011;65538;50.798;6.064;2023-05-07T07:57:34;5.45;;;3.50;;
76640;SDS011;65538;50.798;6.064;2023-05-07T07:59:59;7.10;;;3.87;;
76640;SDS011;65538;50.798;6.064;2023-05-07T08:02:25;5.15;;;3.70;;
76640;SDS011;65538;50.798;6.064;2023-05-07T08:04:50;6.57;;;5.00;;
76640;SDS011;65538;50.798;6.064;2023-05-07T08:07:16;5.70;;;3.00;;
76640;SDS011;65538;50.798;6.064;2023-05-07T08:09:43;6.13;;;3.20;;
76640;SDS011;65538;50.798;6.064;2023-05-07T08:12:08;5.13;;;3.23;;
76640;SDS011;65538;50.798;6.064;2023-05-07T08:14:34;4.83;;;2.70;;
76640;SDS011;65538;50.798;6.064;2023-05-07T08:16:59;5.65;;;3.55;;
76640;SDS011;65538;50.798;6.064;2023-05-07T08:19:24;6.05;;;3.33;;
76640;SDS011;65538;50.798;6.064;2023-05-07T08:21:50;4.87;;;3.80;;
76640;SDS011;65538;50.798;6.064;2023-05-07T08:24:15;6.88;;;4.40;;
76640;SDS011;65538;50.798;6.064;2023-05-07T08:26:41;6.55;;;3.65;;
76640;SDS011;65538;50.798;6.064;2023-05-07T08:29:06;4.50;;;3.30;;
76640;SDS011;65538;50.798;6.064;2023-05-07T08:31:31;5.43;;;2.80;;
76640;SDS011;65538;50.798;6.064;2023-05-07T08:33:57;4.90;;;2.57;;
76640;SDS011;65538;50.798;6.064;2023-05-07T08:36:22;4.13;;;2.45;;
76640;SDS011;65538;50.798;6.064;2023-05-07T08:38:48;5.67;;;2.63;;
76640;SDS011;65538;50.798;6.064;2023-05-07T08:41:14;4.57;;;2.30;;
76640;SDS011;65538;50.798;6.064;2023-05-07T08:43:40;4.43;;;2.22;;
76640;SDS011;65538;50.798;6.064;2023-05-07T08:46:09;5.78;;;2.20;;
76640;SDS011;65538;50.798;6.064;2023-05-07T08:48:35;6.50;;;2.47;;
76640;SDS011;65538;50.798;6.064;2023-05-07T08:51:01;5.47;;;2.70;;
76640;SDS011;65538;50.798;6.064;2023-05-07T08:53:26;4.00;;;2.20;;
76640;SDS011;65538;50.798;6.064;2023-05-07T08:55:51;6.13;;;2.13;;
76640;SDS011;65538;50.798;6.064;2023-05-07T08:58:17;3.92;;;2.17;;
76640;SDS011;65538;50.798;6.064;2023-05-07T09:00:43;4.43;;;2.47;;
76640;SDS011;65538;50.798;6.064;2023-05-07T09:03:08;4.05;;;2.35;;
76640;SDS011;65538;50.798;6.064;2023-05-07T09:05:33;5.27;;;2.43;;
76640;SDS011;65538;50.798;6.064;2023-05-07T09:07:59;4.63;;;2.37;;
76640;SDS011;65538;50.798;6.064;2023-05-07T09:10:25;4.05;;;2.13;;
76640;SDS011;65538;50.798;6.064;2023-05-07T09:12:50;6.38;;;3.00;;
76640;SDS011;65538;50.798;6.064;2023-05-07T09:15:16;4.33;;;2.10;;
76640;SDS011;65538;50.798;6.064;2023-05-07T09:17:41;5.27;;;2.53;;
76640;SDS011;65538;50.798;6.064;2023-05-07T09:20:07;3.63;;;2.20;;
76640;SDS011;65538;50.798;6.064;2023-05-07T09:22:33;8.60;;;2.23;;
76640;SDS011;65538;50.798;6.064;2023-05-07T09:24:58;7.03;;;2.20;;
76640;SDS011;65538;50.798;6.064;2023-05-07T09:27:24;6.77;;;2.40;;
76640;SDS011;65538;50.798;6.064;2023-05-07T09:29:50;4.95;;;2.67;;
76640;SDS011;65538;50.798;6.064;2023-05-07T09:32:15;6.30;;;1.80;;
76640;SDS011;65538;50.798;6.064;2023-05-07T09:34:41;3.40;;;2.15;;
76640;SDS011;65538;50.798;6.064;2023-05-07T09:37:06;5.72;;;2.22;;
76640;SDS011;65538;50.798;6.064;2023-05-07T09:39:41;5.78;;;2.33;;
76640;SDS011;65538;50.798;6.064;2023-05-07T09:42:07;3.38;;;2.00;;
76640;SDS011;65538;50.798;6.064;2023-05-07T09:44:32;5.10;;;2.00;;
76640;SDS011;65538;50.798;6.064;2023-05-07T09:46:58;3.17;;;1.80;;
76640;SDS011;65538;50.798;6.064;2023-05-07T09:49:24;4.65;;;1.92;;
76640;SDS011;65538;50.798;6.064;2023-05-07T09:51:52;3.10;;;1.75;;
76640;SDS011;65538;50.798;6.064;2023-05-07T09:54:18;4.90;;;2.00;;
76640;SDS011;65538;50.798;6.064;2023-05-07T09:56:44;3.23;;;2.10;;
76640;SDS011;65538;50.798;6.064;2023-05-07T09:59:13;3.00;;;1.85;;
76640;SDS011;65538;50.798;6.064;2023-05-07T10:01:38;5.30;;;1.90;;
76640;SDS011;65538;50.798;6.064;2023-05-07T10:04:05;4.68;;;2.30;;
76640;SDS011;65538;50.798;6.064;2023-05-07T10:06:30;4.82;;;1.90;;
76640;SDS011;65538;50.798;6.064;2023-05-07T10:08:56;5.07;;;2.30;;
76640;SDS011;65538;50.798;6.064;2023-05-07T10:11:22;6.13;;;2.28;;
76640;SDS011;65538;50.798;6.064;2023-05-07T10:13:48;4.78;;;2.38;;
76640;SDS011;65538;50.798;6.064;2023-05-07T10:16:13;3.55;;;2.25;;
76640;SDS011;65538;50.798;6.064;2023-05-07T10:18:40;3.58;;;2.78;;
76640;SDS011;65538;50.798;6.064;2023-05-07T10:21:11;3.05;;;2.15;;
76640;SDS011;65538;50.798;6.064;2023-05-07T10:23:38;3.83;;;2.15;;
76640;SDS011;65538;50.798;6.064;2023-05-07T10:26:05;6.53;;;2.00;;
76640;SDS011;65538;50.798;6.064;2023-05-07T10:28:34;4.78;;;2.30;;
76640;SDS011;65538;50.798;6.064;2023-05-07T10:31:08;5.15;;;1.92;;
76640;SDS011;65538;50.798;6.064;2023-05-07T10:33:36;3.90;;;2.22;;
76640;SDS011;65538;50.798;6.064;2023-05-07T10:36:02;4.13;;;2.13;;
76640;SDS011;65538;50.798;6.064;2023-05-07T10:38:29;5.28;;;2.13;;
76640;SDS011;65538;50.798;6.064;2023-05-07T10:40:55;3.55;;;1.95;;
76640;SDS011;65538;50.798;6.064;2023-05-07T10:43:20;5.53;;;2.10;;
76640;SDS011;65538;50.798;6.064;2023-05-07T10:48:29;3.50;;;2.05;;
76640;SDS011;65538;50.798;6.064;2023-05-07T10:56:38;2.70;;;1.50;;
76640;SDS011;65538;50.798;6.064;2023-05-07T11:01:59;6.13;;;2.60;;
76640;SDS011;65538;50.798;6.064;2023-05-07T11:04:25;4.45;;;2.42;;
76640;SDS011;65538;50.798;6.064;2023-05-07T11:15:07;5.35;;;2.40;;
76640;SDS011;65538;50.798;6.064;2023-05-07T11:17:33;3.90;;;2.50;;
76640;SDS011;65538;50.798;6.064;2023-05-07T11:20:00;3.88;;;2.20;;
76640;SDS011;65538;50.798;6.064;2023-05-07T11:25:01;5.25;;;2.00;;
76640;SDS011;65538;50.798;6.064;2023-05-07T11:27:26;6.90;;;2.72;;
76640;SDS011;65538;50.798;6.064;2023-05-07T11:29:52;4.83;;;2.43;;
76640;SDS011;65538;50.798;6.064;2023-05-07T11:34:52;5.43;;;2.67;;
76640;SDS011;65538;50.798;6.064;2023-05-07T11:37:17;5.22;;;2.88;;
76640;SDS011;65538;50.798;6.064;2023-05-07T11:39:43;6.18;;;3.10;;
76640;SDS011;65538;50.798;6.064;2023-05-07T11:42:24;7.87;;;2.90;;
76640;SDS011;65538;50.798;6.064;2023-05-07T11:44:50;9.23;;;3.17;;
76640;SDS011;65538;50.798;6.064;2023-05-07T11:47:18;4.40;;;2.93;;
76640;SDS011;65538;50.798;6.064;2023-05-07T11:49:46;6.38;;;3.08;;
76640;SDS011;65538;50.798;6.064;2023-05-07T11:52:12;8.00;;;3.17;;
76640;SDS011;65538;50.798;6.064;2023-05-07T11:54:37;7.97;;;3.65;;
76640;SDS011;65538;50.798;6.064;2023-05-07T11:57:03;7.57;;;3.83;;
76640;SDS011;65538;50.798;6.064;2023-05-07T11:59:28;7.97;;;4.20;;
76640;SDS011;65538;50.798;6.064;2023-05-07T12:01:56;8.67;;;5.80;;
76640;SDS011;65538;50.798;6.064;2023-05-07T12:04:22;10.30;;;6.18;;
76640;SDS011;65538;50.798;6.064;2023-05-07T12:06:47;11.20;;;7.10;;
76640;SDS011;65538;50.798;6.064;2023-05-07T12:09:12;11.80;;;7.23;;
76640;SDS011;65538;50.798;6.064;2023-05-07T12:11:38;10.53;;;7.43;;
76640;SDS011;65538;50.798;6.064;2023-05-07T12:14:05;12.07;;;9.00;;
76640;SDS011;65538;50.798;6.064;2023-05-07T12:16:30;14.15;;;9.00;;
76640;SDS011;65538;50.798;6.064;2023-05-07T12:18:55;13.20;;;9.27;;
76640;SDS011;65538;50.798;6.064;2023-05-07T12:21:23;12.45;;;8.45;;
76640;SDS011;65538;50.798;6.064;2023-05-07T12:23:50;13.98;;;8.90;;
76640;SDS011;65538;50.798;6.064;2023-05-07T12:26:15;14.53;;;8.30;;
76640;SDS011;65538;50.798;6.064;2023-05-07T12:28:40;14.40;;;9.30;;
76640;SDS011;65538;50.798;6.064;2023-05-07T12:31:06;18.13;;;9.50;;
76640;SDS011;65538;50.798;6.064;2023-05-07T12:33:31;15.13;;;10.30;;
76640;SDS011;65538;50.798;6.064;2023-05-07T12:35:57;16.17;;;9.55;;
76640;SDS011;65538;50.798;6.064;2023-05-07T12:38:23;17.33;;;9.75;;
76640;SDS011;65538;50.798;6.064;2023-05-07T12:40:49;15.02;;;9.25;;
76640;SDS011;65538;50.798;6.064;2023-05-07T12:43:20;14.75;;;9.38;;
76640;SDS011;65538;50.798;6.064;2023-05-07T12:45:46;13.70;;;9.82;;
76640;SDS011;65538;50.798;6.064;2023-05-07T12:48:12;13.68;;;10.10;;
76640;SDS011;65538;50.798;6.064;2023-05-07T12:50:37;16.23;;;10.33;;
76640;SDS011;65538;50.798;6.064;2023-05-07T12:53:06;14.47;;;9.37;;
76640;SDS011;65538;50.798;6.064;2023-05-07T12:55:34;13.52;;;9.18;;
76640;SDS011;65538;50.798;6.064;2023-05-07T12:58:04;17.23;;;9.82;;
76640;SDS011;65538;50.798;6.064;2023-05-07T13:00:33;13.60;;;8.37;;
76640;SDS011;65538;50.798;6.064;2023-05-07T13:02:59;11.23;;;7.63;;
76640;SDS011;65538;50.798;6.064;2023-05-07T13:05:24;12.37;;;8.20;;
76640;SDS011;65538;50.798;6.064;2023-05-07T13:07:56;13.97;;;7.93;;
76640;SDS011;65538;50.798;6.064;2023-05-07T13:10:21;11.50;;;7.80;;
76640;SDS011;65538;50.798;6.064;2023-05-07T13:12:47;10.40;;;7.40;;
76640;SDS011;65538;50.798;6.064;2023-05-07T13:15:12;10.53;;;7.90;;
76640;SDS011;65538;50.798;6.064;2023-05-07T13:17:37;10.60;;;7.70;;
76640;SDS011;65538;50.798;6.064;2023-05-07T13:20:02;11.23;;;8.13;;
76640;SDS011;65538;50.798;6.064;2023-05-07T13:22:28;12.95;;;8.00;;
76640;SDS011;65538;50.798;6.064;2023-05-07T13:24:53;8.63;;;7.10;;
76640;SDS011;65538;50.798;6.064;2023-05-07T13:27:18;11.20;;;6.73;;
76640;SDS011;65538;50.798;6.064;2023-05-07T13:29:44;10.82;;;6.85;;
76640;SDS011;65538;50.798;6.064;2023-05-07T13:32:09;10.38;;;6.38;;
76640;SDS011;65538;50.798;6.064;2023-05-07T13:34:35;8.20;;;6.33;;
76640;SDS011;65538;50.798;6.064;2023-05-07T13:37:00;10.70;;;6.87;;
76640;SDS011;65538;50.798;6.064;2023-05-07T13:39:25;8.57;;;6.18;;
76640;SDS011;65538;50.798;6.064;2023-05-07T13:41:51;11.60;;;7.03;;
76640;SDS011;65538;50.798;6.064;2023-05-07T13:44:16;11.60;;;6.40;;
76640;SDS011;65538;50.798;6.064;2023-05-07T13:46:41;9.63;;;6.07;;
76640;SDS011;65538;50.798;6.064;2023-05-07T13:49:06;8.20;;;6.50;;
76640;SDS011;65538;50.798;6.064;2023-05-07T13:51:32;8.70;;;6.20;;
76640;SDS011;65538;50.798;6.064;2023-05-07T13:53:57;11.27;;;6.00;;
76640;SDS011;65538;50.798;6.064;2023-05-07T13:56:23;9.43;;;7.28;;
76640;SDS011;65538;50.798;6.064;2023-05-07T13:58:48;10.37;;;6.40;;
76640;SDS011;65538;50.798;6.064;2023-05-07T14:01:13;9.60;;;6.60;;
76640;SDS011;65538;50.798;6.064;2023-05-07T14:03:39;8.73;;;6.30;;
76640;SDS011;65538;50.798;6.064;2023-05-07T14:06:04;6.72;;;5.20;;
76640;SDS011;65538;50.798;6.064;2023-05-07T14:08:30;8.13;;;5.70;;
76640;SDS011;65538;50.798;6.064;2023-05-07T14:10:55;8.60;;;5.70;;
76640;SDS011;65538;50.798;6.064;2023-05-07T14:13:20;8.27;;;5.47;;
76640;SDS011;65538;50.798;6.064;2023-05-07T14:15:45;7.03;;;4.97;;
76640;SDS011;65538;50.798;6.064;2023-05-07T14:18:14;8.27;;;4.40;;
76640;SDS011;65538;50.798;6.064;2023-05-07T14:20:39;5.88;;;4.55;;
76640;SDS011;65538;50.798;6.064;2023-05-07T14:23:04;6.83;;;3.97;;
76640;SDS011;65538;50.798;6.064;2023-05-07T14:25:29;5.57;;;3.93;;
76640;SDS011;65538;50.798;6.064;2023-05-07T14:27:55;6.60;;;3.63;;
76640;SDS011;65538;50.798;6.064;2023-05-07T14:30:20;8.02;;;4.28;;
76640;SDS011;65538;50.798;6.064;2023-05-07T14:32:47;5.47;;;3.75;;
76640;SDS011;65538;50.798;6.064;2023-05-07T14:35:12;6.83;;;3.80;;
76640;SDS011;65538;50.798;6.064;2023-05-07T14:37:37;5.50;;;3.90;;
76640;SDS011;65538;50.798;6.064;2023-05-07T14:40:02;8.17;;;3.43;;
76640;SDS011;65538;50.798;6.064;2023-05-07T14:42:28;7.53;;;3.40;;
76640;SDS011;65538;50.798;6.064;2023-05-07T14:44:53;7.87;;;3.70;;
76640;SDS011;65538;50.798;6.064;2023-05-07T14:47:18;6.40;;;4.33;;
76640;SDS011;65538;50.798;6.064;2023-05-07T14:49:43;6.07;;;4.50;;
76640;SDS011;65538;50.798;6.064;2023-05-07T14:52:09;7.00;;;5.07;;
76640;SDS011;65538;50.798;6.064;2023-05-07T14:54:35;8.45;;;4.90;;
76640;SDS011;65538;50.798;6.064;2023-05-07T14:57:00;6.57;;;3.97;;
76640;SDS011;65538;50.798;6.064;2023-05-07T14:59:25;7.15;;;3.83;;
76640;SDS011;65538;50.798;6.064;2023-05-07T15:01:51;7.07;;;4.00;;
76640;SDS011;65538;50.798;6.064;2023-05-07T15:04:16;5.80;;;3.67;;
76640;SDS011;65538;50.798;6.064;2023-05-07T15:06:41;6.47;;;3.87;;